createdAt,value
2023-03-26T00:00:09.360Z,2.45
2023-03-26T00:00:21.546Z,2.42
2023-03-26T00:00:34.141Z,2.65
2023-03-26T00:00:48.545Z,2.97
2023-03-26T00:01:01.950Z,3.20
2023-03-26T00:01:17.673Z,3.83
2023-03-26T00:01:33.522Z,4.05
2023-03-26T00:01:47.165Z,3.42
2023-03-26T00:01:59.217Z,3.05
2023-03-26T00:02:11.409Z,2.55
2023-03-26T00:02:23.450Z,3.30
2023-03-26T00:02:35.894Z,3.33
2023-03-26T00:02:47.874Z,3.10
2023-03-26T00:02:59.905Z,3.58
2023-03-26T00:03:13.192Z,3.97
2023-03-26T00:03:26.213Z,4.93
2023-03-26T00:03:39.075Z,5.65
2023-03-26T00:03:55.329Z,5.97
2023-03-26T00:04:07.954Z,4.30
2023-03-26T00:04:21.734Z,4.35
2023-03-26T00:04:34.512Z,5.53
2023-03-26T00:04:46.654Z,4.60
2023-03-26T00:04:58.624Z,3.15
2023-03-26T00:05:10.749Z,2.40
2023-03-26T00:05:22.935Z,4.40
2023-03-26T00:05:35.046Z,5.00
2023-03-26T00:05:48.253Z,5.30
2023-03-26T00:06:09.357Z,3.63
2023-03-26T00:06:23.813Z,3.10
2023-03-26T00:06:39.428Z,4.20
2023-03-26T00:06:52.027Z,3.90
2023-03-26T00:07:04.197Z,3.70
2023-03-26T00:07:16.682Z,4.00
2023-03-26T00:07:28.715Z,4.05
2023-03-26T00:07:41.229Z,3.67
2023-03-26T00:07:53.215Z,4.22
2023-03-26T00:08:05.778Z,3.50
2023-03-26T00:08:17.910Z,3.42
2023-03-26T00:08:29.930Z,3.78
2023-03-26T00:08:44.895Z,4.03
2023-03-26T00:08:58.304Z,3.25
2023-03-26T00:09:13.247Z,2.63
2023-03-26T00:09:25.956Z,4.95
2023-03-26T00:09:38.142Z,5.07
2023-03-26T00:09:50.104Z,3.50
2023-03-26T00:10:02.131Z,2.60
2023-03-26T00:10:15.343Z,2.50
2023-03-26T00:10:27.346Z,3.10
2023-03-26T00:10:40.644Z,4.07
2023-03-26T00:10:52.604Z,5.13
2023-03-26T00:11:06.639Z,4.78
2023-03-26T00:11:21.924Z,3.58
2023-03-26T00:11:34.738Z,3.70
2023-03-26T00:11:46.781Z,4.22
2023-03-26T00:11:58.809Z,3.33
2023-03-26T00:12:10.783Z,4.30
2023-03-26T00:12:22.746Z,3.53
2023-03-26T00:12:34.885Z,3.58
2023-03-26T00:12:47.106Z,2.97
2023-03-26T00:12:59.106Z,3.00
2023-03-26T00:13:11.708Z,3.17
2023-03-26T00:13:23.704Z,3.63
2023-03-26T00:13:36.048Z,3.15
2023-03-26T00:13:48.772Z,3.00
2023-03-26T00:14:00.824Z,3.50
2023-03-26T00:14:13.847Z,2.55
2023-03-26T00:14:26.810Z,2.45
2023-03-26T00:14:40.774Z,2.33
2023-03-26T00:14:55.288Z,2.65
2023-03-26T00:15:10.378Z,4.25
2023-03-26T00:15:22.349Z,4.13
2023-03-26T00:15:37.510Z,3.67
2023-03-26T00:15:49.528Z,4.13
2023-03-26T00:16:02.199Z,3.70
2023-03-26T00:16:17.359Z,4.18
2023-03-26T00:16:31.551Z,3.88
2023-03-26T00:16:44.267Z,2.95
2023-03-26T00:16:56.322Z,2.90
2023-03-26T00:17:08.361Z,2.90
2023-03-26T00:17:21.258Z,2.50
2023-03-26T00:17:33.392Z,2.10
2023-03-26T00:17:48.333Z,2.03
2023-03-26T00:18:00.787Z,2.53
2023-03-26T00:18:12.861Z,2.35
2023-03-26T00:18:30.112Z,2.65
2023-03-26T00:18:42.776Z,3.53
2023-03-26T00:18:55.214Z,3.47
2023-03-26T00:19:08.057Z,2.35
2023-03-26T00:19:20.622Z,3.05
2023-03-26T00:19:33.823Z,3.83
2023-03-26T00:19:45.736Z,3.55
2023-03-26T00:19:59.652Z,2.42
2023-03-26T00:20:12.954Z,3.22
2023-03-26T00:20:26.041Z,3.55
2023-03-26T00:20:38.367Z,2.90
2023-03-26T00:20:51.623Z,5.03
2023-03-26T00:21:06.113Z,4.75
2023-03-26T00:21:21.237Z,2.70
2023-03-26T00:21:33.272Z,3.13
2023-03-26T00:21:45.332Z,3.17
2023-03-26T00:21:57.759Z,3.13
2023-03-26T00:22:13.522Z,3.22
2023-03-26T00:22:26.480Z,4.60
2023-03-26T00:22:40.364Z,4.30
2023-03-26T00:22:53.417Z,3.15
2023-03-26T00:23:05.406Z,2.22
2023-03-26T00:23:17.645Z,3.60
2023-03-26T00:23:31.223Z,5.88
2023-03-26T00:23:43.783Z,4.97
2023-03-26T00:24:04.233Z,2.72
2023-03-26T00:24:17.377Z,4.40
2023-03-26T00:24:30.393Z,3.38
2023-03-26T00:24:45.912Z,3.95
2023-03-26T00:24:59.341Z,5.38
2023-03-26T00:25:11.624Z,4.75
2023-03-26T00:25:23.697Z,4.45
2023-03-26T00:25:41.244Z,4.50
2023-03-26T00:25:53.608Z,5.13
2023-03-26T00:26:10.463Z,4.78
2023-03-26T00:26:22.528Z,3.72
2023-03-26T00:26:35.576Z,4.88
2023-03-26T00:26:53.008Z,5.07
2023-03-26T00:27:05.648Z,3.65
2023-03-26T00:27:17.634Z,4.35
2023-03-26T00:27:29.586Z,5.72
2023-03-26T00:27:41.858Z,5.50
2023-03-26T00:27:53.844Z,5.63
2023-03-26T00:28:07.628Z,5.28
2023-03-26T00:28:22.745Z,4.28
2023-03-26T00:28:35.065Z,4.05
2023-03-26T00:28:50.808Z,3.85
2023-03-26T00:29:04.125Z,4.03
2023-03-26T00:29:16.925Z,3.88
2023-03-26T00:29:28.896Z,4.03
2023-03-26T00:29:41.098Z,4.18
2023-03-26T00:29:56.479Z,3.88
2023-03-26T00:30:09.346Z,3.15
2023-03-26T00:30:21.842Z,3.85
2023-03-26T00:30:35.697Z,3.55
2023-03-26T00:30:59.531Z,2.63
2023-03-26T00:31:14.639Z,6.13
2023-03-26T00:31:27.903Z,6.30
2023-03-26T00:31:46.700Z,4.85
2023-03-26T00:31:59.447Z,5.70
2023-03-26T00:32:11.587Z,5.65
2023-03-26T00:32:30.716Z,4.90
2023-03-26T00:32:43.848Z,3.50
2023-03-26T00:33:07.772Z,5.40
2023-03-26T00:33:19.829Z,4.57
2023-03-26T00:33:32.908Z,4.63
2023-03-26T00:33:45.506Z,4.15
2023-03-26T00:33:57.731Z,4.22
2023-03-26T00:34:10.404Z,3.88
2023-03-26T00:34:23.008Z,2.78
2023-03-26T00:34:35.156Z,4.10
2023-03-26T00:34:47.243Z,4.55
2023-03-26T00:35:00.898Z,5.43
2023-03-26T00:35:14.080Z,5.25
2023-03-26T00:35:26.487Z,3.63
2023-03-26T00:35:38.849Z,3.97
2023-03-26T00:35:56.821Z,3.40
2023-03-26T00:36:15.304Z,2.63
2023-03-26T00:36:27.350Z,2.95
2023-03-26T00:36:42.315Z,3.40
2023-03-26T00:36:54.847Z,3.20
2023-03-26T00:37:08.854Z,3.25
2023-03-26T00:37:26.307Z,4.00
2023-03-26T00:37:38.833Z,3.75
2023-03-26T00:37:51.618Z,3.10
2023-03-26T00:38:03.745Z,3.28
2023-03-26T00:38:16.461Z,4.53
2023-03-26T00:38:28.743Z,5.05
2023-03-26T00:38:42.305Z,5.28
2023-03-26T00:38:55.315Z,4.35
2023-03-26T00:39:07.391Z,3.47
2023-03-26T00:39:19.852Z,2.50
2023-03-26T00:39:33.960Z,4.93
2023-03-26T00:39:49.148Z,6.57
2023-03-26T00:40:07.143Z,5.03
2023-03-26T00:40:19.526Z,5.38
2023-03-26T00:40:32.159Z,6.57
2023-03-26T00:40:44.353Z,8.57
2023-03-26T00:41:06.080Z,8.43
2023-03-26T00:41:23.223Z,7.15
2023-03-26T00:41:42.832Z,8.52
2023-03-26T00:41:55.396Z,8.90
2023-03-26T00:42:08.144Z,7.97
2023-03-26T00:42:20.675Z,7.75
2023-03-26T00:42:33.242Z,7.75
2023-03-26T00:42:45.279Z,8.68
2023-03-26T00:42:57.317Z,8.30
2023-03-26T00:43:10.175Z,7.60
2023-03-26T00:43:22.856Z,8.10
2023-03-26T00:43:36.009Z,8.27
2023-03-26T00:43:49.520Z,5.75
2023-03-26T00:44:01.658Z,6.25
2023-03-26T00:44:13.617Z,8.13
2023-03-26T00:44:25.544Z,7.07
2023-03-26T00:44:37.480Z,5.35
2023-03-26T00:44:51.147Z,5.25
2023-03-26T00:45:07.393Z,5.32
2023-03-26T00:45:21.338Z,5.00
2023-03-26T00:45:33.357Z,4.13
2023-03-26T00:45:54.184Z,3.83
2023-03-26T00:46:06.813Z,5.05
2023-03-26T00:46:19.630Z,6.35
2023-03-26T00:46:32.214Z,6.05
2023-03-26T00:46:44.371Z,5.45
2023-03-26T00:46:56.393Z,4.88
2023-03-26T00:47:08.351Z,4.78
2023-03-26T00:47:21.339Z,4.85
2023-03-26T00:47:34.590Z,4.65
2023-03-26T00:47:47.055Z,5.32
2023-03-26T00:47:59.054Z,5.85
2023-03-26T00:48:11.540Z,5.28
2023-03-26T00:48:31.559Z,6.70
2023-03-26T00:48:50.736Z,4.72
2023-03-26T00:49:04.022Z,4.57
2023-03-26T00:49:16.009Z,5.38
2023-03-26T00:49:30.508Z,5.25
2023-03-26T00:49:42.458Z,6.28
2023-03-26T00:49:54.859Z,7.90
2023-03-26T00:50:15.176Z,6.75
2023-03-26T00:50:27.150Z,4.25
2023-03-26T00:50:39.622Z,4.50
2023-03-26T00:50:51.587Z,5.07
2023-03-26T00:51:03.783Z,5.43
2023-03-26T00:51:17.435Z,5.32
2023-03-26T00:51:29.873Z,5.45
2023-03-26T00:51:41.952Z,4.18
2023-03-26T00:51:54.011Z,3.45
2023-03-26T00:52:08.640Z,2.97
2023-03-26T00:52:20.911Z,3.55
2023-03-26T00:52:33.077Z,4.68
2023-03-26T00:52:46.200Z,4.65
2023-03-26T00:52:58.785Z,4.10
2023-03-26T00:53:12.133Z,3.88
2023-03-26T00:53:24.166Z,4.47
2023-03-26T00:53:38.868Z,4.90
2023-03-26T00:53:51.441Z,4.80
2023-03-26T00:54:03.608Z,5.05
2023-03-26T00:54:15.685Z,4.80
2023-03-26T00:54:28.507Z,4.60
2023-03-26T00:54:40.854Z,3.97
2023-03-26T00:54:52.804Z,4.13
2023-03-26T00:55:05.124Z,4.65
2023-03-26T00:55:17.527Z,5.57
2023-03-26T00:55:29.511Z,5.28
2023-03-26T00:55:43.385Z,5.15
2023-03-26T00:56:00.458Z,4.47
2023-03-26T00:56:13.512Z,3.80
2023-03-26T00:56:25.899Z,4.45
2023-03-26T00:56:38.684Z,5.35
2023-03-26T00:56:50.923Z,5.75
2023-03-26T00:57:06.853Z,5.43
2023-03-26T00:57:34.654Z,4.72
2023-03-26T00:57:47.739Z,5.57
2023-03-26T00:57:59.769Z,5.15
2023-03-26T00:58:12.777Z,5.63
2023-03-26T00:58:24.838Z,5.53
2023-03-26T00:58:37.509Z,4.90
2023-03-26T00:58:52.637Z,3.90
2023-03-26T00:59:04.678Z,4.75
2023-03-26T00:59:17.061Z,6.07
2023-03-26T00:59:30.299Z,5.55
2023-03-26T00:59:42.321Z,5.05
2023-03-26T00:59:54.249Z,4.43
2023-03-26T01:00:11.063Z,4.15
2023-03-26T01:00:36.398Z,4.30
2023-03-26T01:00:59.512Z,4.20
2023-03-26T01:01:15.336Z,5.07
2023-03-26T01:01:29.330Z,6.63
2023-03-26T01:01:41.502Z,4.47
2023-03-26T01:01:55.245Z,2.95
2023-03-26T01:02:11.761Z,3.70
2023-03-26T01:02:25.138Z,3.58
2023-03-26T01:02:37.357Z,2.97
2023-03-26T01:02:49.415Z,2.75
2023-03-26T01:03:02.526Z,3.85
2023-03-26T01:03:27.825Z,5.03
2023-03-26T01:03:45.910Z,4.57
2023-03-26T01:04:30.578Z,7.03
2023-03-26T01:04:48.509Z,3.65
2023-03-26T01:05:04.017Z,3.45
2023-03-26T01:05:36.860Z,4.50
2023-03-26T01:05:54.969Z,3.05
2023-03-26T01:06:35.720Z,5.25
2023-03-26T01:06:47.973Z,4.32
2023-03-26T01:07:22.707Z,5.18
2023-03-26T01:07:35.162Z,4.68
2023-03-26T01:07:47.372Z,4.40
2023-03-26T01:08:03.679Z,5.13
2023-03-26T01:08:33.736Z,6.25
2023-03-26T01:08:48.728Z,4.85
2023-03-26T01:09:11.746Z,5.97
2023-03-26T01:09:30.796Z,5.57
2023-03-26T01:09:50.121Z,4.25
2023-03-26T01:10:05.210Z,3.75
2023-03-26T01:10:22.614Z,3.92
2023-03-26T01:10:38.623Z,4.78
2023-03-26T01:10:52.517Z,6.13
2023-03-26T01:11:14.165Z,6.72
2023-03-26T01:11:29.873Z,5.97
2023-03-26T01:11:42.191Z,4.82
2023-03-26T01:11:54.289Z,4.22
2023-03-26T01:12:08.652Z,4.68
2023-03-26T01:12:23.974Z,5.35
2023-03-26T01:12:36.008Z,4.53
2023-03-26T01:12:47.942Z,4.88
2023-03-26T01:12:59.932Z,6.53
2023-03-26T01:13:11.893Z,6.85
2023-03-26T01:13:24.602Z,8.02
2023-03-26T01:13:38.323Z,6.97
2023-03-26T01:13:54.712Z,6.15
2023-03-26T01:14:12.961Z,4.95
2023-03-26T01:14:26.833Z,3.70
2023-03-26T01:14:39.695Z,3.83
2023-03-26T01:14:55.071Z,5.82
2023-03-26T01:15:08.290Z,6.30
2023-03-26T01:15:20.305Z,4.95
2023-03-26T01:15:32.527Z,4.78
2023-03-26T01:15:50.883Z,4.22
2023-03-26T01:16:09.850Z,4.47
2023-03-26T01:16:45.101Z,4.50
2023-03-26T01:17:00.384Z,4.57
2023-03-26T01:17:13.240Z,4.28
2023-03-26T01:17:33.847Z,4.65
2023-03-26T01:17:46.340Z,2.55
2023-03-26T01:17:59.006Z,3.45
2023-03-26T01:18:14.062Z,5.32
2023-03-26T01:18:26.470Z,4.80
2023-03-26T01:18:41.052Z,4.80
2023-03-26T01:18:53.810Z,4.50
2023-03-26T01:19:12.949Z,3.65
2023-03-26T01:19:33.816Z,5.18
2023-03-26T01:19:48.813Z,4.50
2023-03-26T01:20:15.038Z,3.28
2023-03-26T01:20:30.470Z,6.25
2023-03-26T01:20:46.772Z,3.72
2023-03-26T01:21:05.180Z,3.10
2023-03-26T01:21:28.482Z,2.08
2023-03-26T01:21:40.559Z,3.05
2023-03-26T01:21:52.538Z,2.75
2023-03-26T01:22:07.084Z,2.72
2023-03-26T01:22:21.934Z,2.72
2023-03-26T01:22:36.655Z,2.97
2023-03-26T01:22:53.225Z,2.70
2023-03-26T01:23:07.265Z,2.20
2023-03-26T01:23:24.632Z,2.05
2023-03-26T01:23:49.018Z,2.45
2023-03-26T01:24:05.094Z,2.72
2023-03-26T01:24:17.165Z,2.38
2023-03-26T01:24:29.147Z,3.15
2023-03-26T01:24:42.447Z,2.80
2023-03-26T01:24:56.483Z,3.50
2023-03-26T01:25:09.551Z,4.43
2023-03-26T01:25:27.916Z,4.28
2023-03-26T01:25:48.124Z,2.92
2023-03-26T01:26:12.019Z,2.70
2023-03-26T01:26:28.112Z,2.53
2023-03-26T01:27:01.545Z,2.05
2023-03-26T01:27:33.777Z,3.45
2023-03-26T01:27:51.915Z,3.13
2023-03-26T01:28:08.744Z,3.08
2023-03-26T01:28:21.693Z,2.95
2023-03-26T01:28:36.485Z,3.00
2023-03-26T01:28:51.234Z,3.33
2023-03-26T01:29:04.940Z,2.78
2023-03-26T01:29:22.302Z,2.28
2023-03-26T01:29:52.615Z,4.22
2023-03-26T01:30:42.254Z,4.75
2023-03-26T01:31:14.963Z,2.88
2023-03-26T01:31:30.145Z,4.28
2023-03-26T01:32:03.173Z,3.20
2023-03-26T01:32:46.223Z,3.78
2023-03-26T01:33:22.814Z,2.97
2023-03-26T01:33:47.557Z,5.70
2023-03-26T01:34:34.281Z,3.90
2023-03-26T01:35:07.680Z,3.75
2023-03-26T01:36:00.694Z,1.88
2023-03-26T01:36:26.040Z,4.53
2023-03-26T01:36:52.697Z,4.00
2023-03-26T01:37:25.223Z,3.95
2023-03-26T01:37:58.490Z,3.72
2023-03-26T01:38:22.896Z,3.35
2023-03-26T01:38:35.505Z,3.50
2023-03-26T01:39:11.080Z,2.83
2023-03-26T01:39:31.894Z,4.13
2023-03-26T01:39:49.593Z,5.30
2023-03-26T01:40:18.115Z,4.78
2023-03-26T01:40:38.458Z,4.03
2023-03-26T01:40:59.781Z,5.05
2023-03-26T01:41:35.302Z,5.05
2023-03-26T01:42:08.328Z,2.78
2023-03-26T01:42:33.118Z,2.58
2023-03-26T01:42:48.197Z,2.97
2023-03-26T01:43:28.650Z,2.58
2023-03-26T01:44:08.695Z,4.10
2023-03-26T01:44:30.096Z,2.95
2023-03-26T01:44:46.577Z,3.10
2023-03-26T01:45:11.888Z,4.65
2023-03-26T01:45:32.538Z,5.28
2023-03-26T01:45:48.147Z,3.22
2023-03-26T01:46:04.113Z,2.50
2023-03-26T01:46:17.854Z,2.65
2023-03-26T01:46:36.971Z,3.40
2023-03-26T01:46:51.550Z,3.00
2023-03-26T01:47:07.472Z,2.45
2023-03-26T01:47:21.903Z,2.08
2023-03-26T01:47:37.067Z,2.33
2023-03-26T01:47:50.557Z,3.63
2023-03-26T01:48:02.992Z,4.45
2023-03-26T01:48:15.498Z,4.88
2023-03-26T01:48:42.992Z,4.03
2023-03-26T01:48:55.928Z,2.10
2023-03-26T01:49:13.381Z,1.88
2023-03-26T01:49:28.338Z,1.90
2023-03-26T01:49:40.479Z,1.85
2023-03-26T01:49:52.589Z,3.20
2023-03-26T01:50:05.300Z,3.75
2023-03-26T01:50:17.533Z,2.78
2023-03-26T01:50:29.841Z,1.60
2023-03-26T01:50:42.115Z,1.90
2023-03-26T01:50:56.452Z,1.73
2023-03-26T01:51:10.557Z,1.73
2023-03-26T01:51:29.535Z,3.70
2023-03-26T01:51:42.962Z,5.07
2023-03-26T01:51:56.895Z,4.85
2023-03-26T01:52:16.176Z,3.72
2023-03-26T01:52:28.668Z,3.17
2023-03-26T01:52:40.971Z,3.05
2023-03-26T01:52:53.153Z,2.80
2023-03-26T01:53:06.063Z,3.00
2023-03-26T01:53:18.612Z,3.72
2023-03-26T01:53:33.385Z,3.30
2023-03-26T01:53:47.801Z,3.50
2023-03-26T01:54:03.649Z,4.38
2023-03-26T01:54:24.836Z,4.30
2023-03-26T01:54:37.442Z,4.65
2023-03-26T01:54:50.394Z,4.00
2023-03-26T01:55:02.913Z,2.83
2023-03-26T01:55:15.076Z,2.90
2023-03-26T01:55:43.626Z,3.08
2023-03-26T01:56:15.545Z,5.80
2023-03-26T01:56:52.236Z,4.63
2023-03-26T01:57:29.613Z,3.13
2023-03-26T01:57:54.444Z,4.43
2023-03-26T01:58:38.088Z,3.80
2023-03-26T01:59:16.731Z,2.70
2023-03-26T01:59:43.484Z,7.35
2023-03-26T02:00:18.116Z,2.20
2023-03-26T02:00:42.104Z,3.92
2023-03-26T02:01:12.690Z,5.72
2023-03-26T02:01:36.558Z,4.78
2023-03-26T02:01:54.933Z,3.17
2023-03-26T02:02:11.658Z,4.88
2023-03-26T02:02:34.969Z,4.28
2023-03-26T02:02:54.942Z,2.97
2023-03-26T02:03:31.688Z,2.97
2023-03-26T02:03:50.572Z,2.67
2023-03-26T02:04:21.194Z,4.22
2023-03-26T02:04:45.853Z,4.30
2023-03-26T02:05:09.623Z,4.50
2023-03-26T02:06:18.686Z,4.60
2023-03-26T02:06:44.656Z,4.60
2023-03-26T02:07:09.207Z,4.35
2023-03-26T02:07:42.425Z,4.05
2023-03-26T02:08:05.390Z,7.32
2023-03-26T02:08:22.632Z,6.18
2023-03-26T02:08:42.483Z,6.70
2023-03-26T02:09:05.628Z,6.15
2023-03-26T02:09:24.745Z,4.05
2023-03-26T02:09:45.792Z,4.07
2023-03-26T02:10:05.429Z,3.75
2023-03-26T02:10:24.507Z,6.18
2023-03-26T02:10:41.667Z,4.70
2023-03-26T02:10:58.054Z,3.88
2023-03-26T02:11:13.495Z,4.93
2023-03-26T02:11:34.640Z,4.97
2023-03-26T02:11:48.680Z,4.53
2023-03-26T02:12:03.634Z,4.60
2023-03-26T02:12:17.171Z,4.97
2023-03-26T02:12:30.170Z,4.97
2023-03-26T02:12:43.767Z,4.57
2023-03-26T02:12:57.598Z,4.28
2023-03-26T02:13:10.852Z,4.15
2023-03-26T02:13:24.212Z,3.85
2023-03-26T02:13:37.268Z,4.70
2023-03-26T02:13:50.562Z,4.55
2023-03-26T02:14:05.578Z,4.30
2023-03-26T02:14:17.961Z,4.80
2023-03-26T02:14:30.896Z,5.40
2023-03-26T02:14:44.124Z,4.25
2023-03-26T02:14:56.134Z,3.50
2023-03-26T02:15:08.732Z,2.95
2023-03-26T02:15:21.018Z,3.95
2023-03-26T02:15:33.348Z,4.72
2023-03-26T02:16:00.498Z,5.30
2023-03-26T02:16:16.262Z,4.55
2023-03-26T02:16:28.452Z,3.63
2023-03-26T02:16:40.781Z,3.97
2023-03-26T02:16:52.726Z,4.65
2023-03-26T02:17:05.002Z,4.85
2023-03-26T02:17:19.076Z,5.57
2023-03-26T02:17:32.586Z,5.35
2023-03-26T02:17:44.643Z,5.10
2023-03-26T02:17:56.646Z,4.95
2023-03-26T02:18:10.876Z,4.85
2023-03-26T02:18:24.297Z,4.57
2023-03-26T02:18:36.516Z,4.20
2023-03-26T02:18:51.258Z,3.85
2023-03-26T02:19:04.409Z,3.40
2023-03-26T02:19:21.356Z,3.35
2023-03-26T02:19:33.365Z,4.93
2023-03-26T02:19:45.289Z,5.20
2023-03-26T02:19:57.229Z,4.03
2023-03-26T02:20:12.460Z,5.90
2023-03-26T02:20:25.650Z,6.15
2023-03-26T02:20:37.770Z,5.22
2023-03-26T02:20:53.041Z,5.10
2023-03-26T02:21:06.736Z,4.25
2023-03-26T02:21:21.373Z,3.65
2023-03-26T02:21:33.943Z,4.38
2023-03-26T02:21:47.535Z,4.78
2023-03-26T02:21:59.857Z,3.97
2023-03-26T02:22:15.586Z,4.05
2023-03-26T02:22:30.306Z,4.57
2023-03-26T02:22:45.619Z,4.03
2023-03-26T02:22:57.993Z,4.35
2023-03-26T02:23:09.959Z,4.18
2023-03-26T02:23:22.004Z,3.33
2023-03-26T02:23:35.862Z,2.28
2023-03-26T02:24:03.242Z,3.88
2023-03-26T02:24:15.573Z,4.25
2023-03-26T02:24:27.722Z,4.10
2023-03-26T02:24:39.659Z,5.03
2023-03-26T02:24:51.593Z,5.03
2023-03-26T02:25:03.651Z,5.40
2023-03-26T02:25:18.589Z,4.43
2023-03-26T02:25:30.841Z,4.82
2023-03-26T02:25:43.878Z,3.67
2023-03-26T02:25:56.088Z,3.78
2023-03-26T02:26:09.847Z,3.85
2023-03-26T02:26:21.810Z,2.67
2023-03-26T02:26:35.956Z,2.30
2023-03-26T02:26:47.938Z,2.95
2023-03-26T02:27:02.170Z,2.30
2023-03-26T02:27:18.305Z,3.13
2023-03-26T02:27:30.815Z,4.28
2023-03-26T02:27:44.184Z,4.03
2023-03-26T02:27:56.559Z,3.90
2023-03-26T02:28:09.023Z,3.58
2023-03-26T02:28:21.509Z,4.50
2023-03-26T02:28:34.042Z,5.40
2023-03-26T02:28:46.657Z,5.68
2023-03-26T02:28:59.334Z,5.65
2023-03-26T02:29:13.989Z,4.60
2023-03-26T02:29:27.092Z,4.20
2023-03-26T02:29:40.720Z,3.70
2023-03-26T02:29:53.216Z,3.33
2023-03-26T02:30:08.815Z,4.10
2023-03-26T02:30:26.234Z,4.72
2023-03-26T02:30:40.206Z,4.40
2023-03-26T02:30:52.525Z,3.28
2023-03-26T02:31:05.542Z,2.95
2023-03-26T02:31:19.659Z,2.70
2023-03-26T02:31:32.181Z,2.53
2023-03-26T02:31:44.554Z,2.42
2023-03-26T02:31:56.975Z,2.13
2023-03-26T02:32:14.607Z,2.45
2023-03-26T02:32:29.172Z,4.32
2023-03-26T02:32:43.950Z,3.65
2023-03-26T02:32:59.439Z,2.47
2023-03-26T02:33:15.392Z,2.92
2023-03-26T02:33:31.956Z,2.20
2023-03-26T02:33:47.817Z,1.83
2023-03-26T02:34:00.007Z,2.15
2023-03-26T02:34:12.387Z,2.80
2023-03-26T02:34:24.606Z,4.88
2023-03-26T02:34:37.096Z,5.28
2023-03-26T02:34:51.496Z,3.80
2023-03-26T02:35:05.541Z,4.40
2023-03-26T02:35:18.007Z,3.42
2023-03-26T02:35:33.445Z,3.38
2023-03-26T02:35:46.239Z,3.83
2023-03-26T02:36:02.164Z,3.40
2023-03-26T02:36:14.718Z,2.85
2023-03-26T02:36:32.971Z,2.60
2023-03-26T02:36:45.567Z,3.38
2023-03-26T02:36:57.900Z,3.90
2023-03-26T02:37:10.468Z,3.58
2023-03-26T02:37:22.909Z,3.40
2023-03-26T02:37:35.309Z,3.15
2023-03-26T02:37:51.247Z,3.95
2023-03-26T02:38:03.587Z,3.05
2023-03-26T02:38:15.788Z,3.13
2023-03-26T02:38:35.333Z,4.05
2023-03-26T02:38:47.825Z,5.75
2023-03-26T02:39:00.424Z,4.97
2023-03-26T02:39:14.433Z,2.88
2023-03-26T02:39:27.259Z,3.78
2023-03-26T02:39:39.958Z,5.25
2023-03-26T02:39:52.257Z,5.35
2023-03-26T02:40:10.629Z,3.45
2023-03-26T02:40:23.002Z,3.70
2023-03-26T02:40:35.266Z,5.10
2023-03-26T02:40:47.699Z,3.97
2023-03-26T02:41:00.626Z,2.80
2023-03-26T02:41:12.756Z,2.58
2023-03-26T02:41:25.132Z,2.78
2023-03-26T02:41:38.355Z,2.97
2023-03-26T02:41:50.340Z,3.75
2023-03-26T02:42:05.236Z,3.95
2023-03-26T02:42:17.374Z,4.75
2023-03-26T02:42:29.913Z,4.22
2023-03-26T02:42:41.864Z,4.07
2023-03-26T02:42:54.167Z,4.30
2023-03-26T02:43:06.373Z,4.10
2023-03-26T02:43:18.990Z,3.30
2023-03-26T02:43:31.548Z,2.60
2023-03-26T02:43:43.745Z,2.15
2023-03-26T02:43:56.034Z,2.20
2023-03-26T02:44:08.518Z,3.60
2023-03-26T02:44:21.138Z,3.20
2023-03-26T02:44:33.385Z,2.55
2023-03-26T02:44:47.652Z,2.03
2023-03-26T02:44:59.668Z,2.58
2023-03-26T02:45:11.614Z,3.10
2023-03-26T02:45:23.721Z,2.88
2023-03-26T02:45:35.885Z,2.90
2023-03-26T02:45:48.332Z,4.82
2023-03-26T02:46:00.612Z,4.47
2023-03-26T02:46:12.828Z,3.25
2023-03-26T02:46:24.924Z,3.17
2023-03-26T02:46:39.715Z,3.92
2023-03-26T02:46:51.697Z,4.95
2023-03-26T02:47:03.741Z,4.15
2023-03-26T02:47:18.287Z,3.20
2023-03-26T02:47:31.316Z,2.10
2023-03-26T02:47:43.503Z,1.73
2023-03-26T02:47:55.550Z,2.27
2023-03-26T02:48:08.027Z,3.45
2023-03-26T02:48:20.638Z,4.97
2023-03-26T02:48:34.871Z,5.32
2023-03-26T02:48:47.953Z,5.72
2023-03-26T02:49:00.135Z,5.25
2023-03-26T02:49:12.613Z,6.32
2023-03-26T02:49:24.784Z,4.63
2023-03-26T02:49:37.073Z,3.92
2023-03-26T02:49:51.855Z,3.25
2023-03-26T02:50:04.720Z,3.55
2023-03-26T02:50:16.789Z,5.57
2023-03-26T02:50:32.485Z,5.60
2023-03-26T02:50:50.107Z,3.17
2023-03-26T02:51:02.998Z,2.22
2023-03-26T02:51:18.352Z,2.35
2023-03-26T02:51:34.794Z,1.88
2023-03-26T02:51:47.016Z,2.17
2023-03-26T02:51:59.065Z,3.92
2023-03-26T02:52:11.600Z,5.38
2023-03-26T02:52:23.977Z,4.60
2023-03-26T02:52:36.429Z,3.75
2023-03-26T02:52:50.024Z,3.53
2023-03-26T02:53:02.423Z,5.00
2023-03-26T02:53:14.424Z,5.47
2023-03-26T02:53:29.904Z,3.25
2023-03-26T02:53:41.933Z,3.33
2023-03-26T02:53:54.955Z,4.38
2023-03-26T02:54:07.310Z,5.28
2023-03-26T02:54:21.520Z,5.90
2023-03-26T02:54:35.243Z,5.68
2023-03-26T02:54:47.997Z,4.57
2023-03-26T02:55:00.465Z,5.87
2023-03-26T02:55:14.679Z,4.88
2023-03-26T02:55:27.202Z,3.85
2023-03-26T02:55:39.786Z,3.20
2023-03-26T02:55:51.935Z,2.10
2023-03-26T02:56:05.004Z,2.55
2023-03-26T02:56:20.427Z,3.90
2023-03-26T02:56:33.503Z,3.53
2023-03-26T02:56:48.674Z,2.95
2023-03-26T02:57:01.449Z,3.60
2023-03-26T02:57:16.693Z,3.17
2023-03-26T02:57:29.239Z,4.38
2023-03-26T02:57:41.369Z,4.07
2023-03-26T02:57:53.549Z,3.40
2023-03-26T02:58:06.255Z,3.20
2023-03-26T02:58:18.303Z,3.90
2023-03-26T02:58:30.431Z,4.15
2023-03-26T02:58:42.736Z,3.75
2023-03-26T02:58:55.094Z,4.35
2023-03-26T02:59:10.826Z,3.95
2023-03-26T02:59:23.244Z,3.45
2023-03-26T02:59:37.520Z,3.35
2023-03-26T02:59:50.523Z,4.43
2023-03-26T03:00:14.133Z,3.53
2023-03-26T03:00:26.316Z,3.40
2023-03-26T03:00:38.416Z,3.40
2023-03-26T03:00:57.558Z,2.65
2023-03-26T03:01:09.815Z,3.45
2023-03-26T03:01:22.880Z,3.88
2023-03-26T03:01:35.934Z,3.30
2023-03-26T03:01:47.967Z,3.13
2023-03-26T03:02:00.596Z,2.78
2023-03-26T03:02:13.557Z,3.60
2023-03-26T03:02:25.815Z,4.03
2023-03-26T03:02:38.750Z,4.30
2023-03-26T03:02:53.005Z,4.00
2023-03-26T03:03:09.640Z,3.13
2023-03-26T03:03:24.425Z,3.55
2023-03-26T03:03:37.948Z,3.85
2023-03-26T03:03:50.392Z,4.10
2023-03-26T03:04:04.504Z,4.10
2023-03-26T03:04:18.028Z,4.50
2023-03-26T03:04:30.298Z,4.70
2023-03-26T03:04:44.044Z,4.65
2023-03-26T03:05:01.260Z,3.88
2023-03-26T03:05:14.168Z,2.28
2023-03-26T03:05:26.809Z,1.50
2023-03-26T03:05:43.237Z,1.77
2023-03-26T03:05:58.463Z,2.67
2023-03-26T03:06:11.018Z,2.75
2023-03-26T03:06:23.100Z,4.03
2023-03-26T03:06:35.214Z,4.65
2023-03-26T03:06:47.467Z,2.72
2023-03-26T03:07:00.039Z,2.50
2023-03-26T03:07:14.637Z,3.10
2023-03-26T03:07:27.309Z,3.13
2023-03-26T03:07:40.357Z,3.35
2023-03-26T03:07:58.285Z,4.20
2023-03-26T03:08:10.705Z,3.65
2023-03-26T03:08:26.669Z,3.67
2023-03-26T03:08:39.489Z,3.28
2023-03-26T03:08:54.114Z,2.35
2023-03-26T03:09:09.874Z,2.35
2023-03-26T03:09:22.346Z,3.42
2023-03-26T03:09:34.884Z,3.55
2023-03-26T03:09:47.313Z,4.05
2023-03-26T03:10:02.483Z,2.60
2023-03-26T03:10:18.570Z,3.13
2023-03-26T03:10:32.854Z,5.90
2023-03-26T03:10:55.678Z,5.95
2023-03-26T03:11:08.968Z,3.20
2023-03-26T03:11:27.039Z,3.88
2023-03-26T03:11:42.629Z,3.42
2023-03-26T03:11:54.926Z,1.92
2023-03-26T03:12:07.686Z,2.13
2023-03-26T03:12:22.765Z,3.40
2023-03-26T03:12:35.593Z,4.40
2023-03-26T03:12:50.626Z,4.10
2023-03-26T03:13:04.179Z,3.28
2023-03-26T03:13:16.494Z,4.07
2023-03-26T03:13:30.806Z,3.63
2023-03-26T03:13:44.346Z,4.70
2023-03-26T03:13:56.498Z,3.58
2023-03-26T03:14:08.597Z,2.47
2023-03-26T03:14:20.641Z,3.10
2023-03-26T03:14:33.125Z,3.45
2023-03-26T03:14:45.905Z,2.67
2023-03-26T03:14:58.414Z,2.10
2023-03-26T03:15:14.079Z,2.35
2023-03-26T03:15:27.795Z,3.58
2023-03-26T03:15:43.026Z,3.40
2023-03-26T03:15:56.459Z,3.30
2023-03-26T03:16:09.403Z,2.50
2023-03-26T03:16:21.664Z,2.40
2023-03-26T03:16:34.046Z,2.45
2023-03-26T03:16:48.735Z,3.00
2023-03-26T03:17:03.800Z,3.92
2023-03-26T03:17:16.196Z,3.95
2023-03-26T03:17:28.713Z,3.28
2023-03-26T03:17:41.785Z,4.25
2023-03-26T03:17:54.144Z,3.03
2023-03-26T03:18:09.105Z,2.25
2023-03-26T03:18:21.611Z,2.75
2023-03-26T03:18:33.690Z,3.05
2023-03-26T03:18:47.473Z,2.80
2023-03-26T03:18:59.672Z,3.60
2023-03-26T03:19:12.242Z,3.72
2023-03-26T03:19:24.758Z,2.15
2023-03-26T03:19:37.778Z,2.60
2023-03-26T03:19:49.735Z,3.40
2023-03-26T03:20:01.740Z,2.70
2023-03-26T03:20:14.111Z,2.60
2023-03-26T03:20:26.094Z,2.50
2023-03-26T03:20:38.049Z,2.63
2023-03-26T03:20:50.283Z,3.40
2023-03-26T03:21:03.176Z,4.78
2023-03-26T03:21:15.192Z,4.60
2023-03-26T03:21:29.081Z,4.57
2023-03-26T03:21:42.114Z,4.88
2023-03-26T03:21:54.058Z,3.83
2023-03-26T03:22:05.957Z,3.53
2023-03-26T03:22:17.890Z,4.15
2023-03-26T03:22:29.797Z,5.40
2023-03-26T03:22:41.764Z,6.10
2023-03-26T03:22:53.712Z,6.20
2023-03-26T03:23:05.669Z,4.00
2023-03-26T03:23:17.812Z,3.45